Погода Кадлубовона 2 недели

Мазовецкое воеводство, Польша

14 - 27 июля
  • 14июля
    Сегодня
    +16°
    +25°
    Ясно и безоблачно
    ВремяПогодаТемператураВлажностьДавлениеВетер, м/сВероятность осадков
    02:00Небольшая облачность+16°C86 %754 мм1.8 м/с2 %
    05:00Облачно с прояснениями+16°C82 %755 мм2.0 м/с18 %
    08:00Облачно с прояснениями, ливень+18°C75 %755 мм1.9 м/с74 %
    11:00Небольшая облачность+21°C60 %755 мм2.6 м/с25 %
    14:00Ясно и безоблачно+23°C50 %755 мм2.5 м/с4 %
    17:00Ясно и безоблачно+25°C47 %754 мм2.3 м/с2 %
    20:00Небольшая облачность+23°C68 %755 мм1.2 м/с2 %
    23:00Облачно с прояснениями+19°C75 %755 мм1.5 м/с2 %
  • 15июля
    Понедельник
    +17°
    +29°
    Небольшая облачность
    ВремяПогодаТемператураВлажностьДавлениеВетер, м/сВероятность осадков
    02:00Небольшая облачность+18°C81 %755 мм1.5 м/с2 %
    05:00Небольшая облачность+17°C84 %756 мм1.4 м/с2 %
    08:00Ясно и безоблачно+22°C68 %756 мм1.5 м/с2 %
    11:00Ясно и безоблачно+26°C45 %756 мм1.5 м/с8 %
    14:00Небольшая облачность+28°C38 %756 мм1.7 м/с16 %
    17:00Небольшая облачность+29°C36 %755 мм2.4 м/с14 %
    20:00Ясно и безоблачно+26°C52 %755 мм2.6 м/с2 %
    23:00Ясно и безоблачно+21°C70 %755 мм2.0 м/с2 %
  • 16июля
    Вторник
    +18°
    +33°
    Облачно с прояснениями
    ВремяПогодаТемператураВлажностьДавлениеВетер, м/сВероятность осадков
    02:00Ясно и безоблачно+19°C75 %755 мм2.2 м/с2 %
    05:00Ясно и безоблачно+18°C81 %755 мм2.6 м/с2 %
    08:00Ясно и безоблачно+24°C64 %755 мм3.2 м/с2 %
    11:00Практически безоблачно+30°C49 %754 мм5.2 м/с2 %
    14:00Облачно с прояснениями+32°C42 %753 мм5.2 м/с7 %
    17:00Пасмурно, дожди с грозами+27°C84 %753 мм1.7 м/с52 %
    20:00Облачно с прояснениями, ливень+26°C87 %753 мм2.5 м/с62 %
    23:00Облачно с прояснениями+22°C94 %753 мм2.8 м/с35 %
  • 17июля
    Среда
    +16°
    +28°
    Практически безоблачно
    ВремяПогодаТемператураВлажностьДавлениеВетер, м/сВероятность осадков
    02:00Облачно с прояснениями+18°C96 %754 мм2.1 м/с27 %
    05:00Ясно и безоблачно+18°C97 %755 мм1.7 м/с12 %
    08:00Ясно и безоблачно+22°C85 %757 мм3.8 м/с8 %
    11:00Ясно и безоблачно+26°C58 %757 мм3.5 м/с5 %
    14:00Практически безоблачно+27°C45 %757 мм3.9 м/с5 %
    17:00Практически безоблачно+27°C43 %757 мм4.3 м/с4 %
    20:00Облачно с прояснениями+24°C60 %758 мм1.7 м/с3 %
    23:00Ясно и безоблачно+20°C70 %758 мм2.2 м/с6 %
  • 18июля
    Четверг
    +15°
    +28°
    Ясно и безоблачно
    ВремяПогодаТемператураВлажностьДавлениеВетер, м/сВероятность осадков
    02:00Ясно и безоблачно+18°C77 %759 мм2.3 м/с4 %
    05:00Ясно и безоблачно+17°C88 %759 мм1.8 м/с8 %
    08:00Ясно и безоблачно+21°C74 %760 мм1.6 м/с5 %
    11:00Ясно и безоблачно+25°C48 %760 мм2.8 м/с15 %
    14:00Ясно и безоблачно+27°C41 %759 мм3.0 м/с17 %
    17:00Ясно и безоблачно+27°C40 %759 мм4.3 м/с9 %
    20:00Ясно и безоблачно+24°C53 %759 мм2.6 м/с4 %
    23:00Ясно и безоблачно+20°C68 %759 мм2.2 м/с2 %
Мы используем cookies
Соглашаюсь